createdAt,value
2022-12-04T00:01:28.720Z,68.78
2022-12-04T00:03:58.614Z,69.20
2022-12-04T00:06:25.594Z,69.27
2022-12-04T00:08:53.472Z,68.56
2022-12-04T00:11:23.152Z,68.39
2022-12-04T00:13:49.860Z,68.41
2022-12-04T00:16:22.604Z,68.10
2022-12-04T00:18:49.569Z,67.74
2022-12-04T00:21:18.178Z,68.07
2022-12-04T00:23:45.452Z,68.37
2022-12-04T00:26:17.933Z,68.66
2022-12-04T00:28:46.317Z,69.28
2022-12-04T00:31:16.317Z,69.22
2022-12-04T00:33:43.450Z,68.68
2022-12-04T00:36:13.481Z,68.31
2022-12-04T00:38:40.808Z,68.14
2022-12-04T00:41:13.204Z,68.44
2022-12-04T00:43:40.247Z,68.82
2022-12-04T00:46:10.199Z,68.86
2022-12-04T00:48:38.460Z,68.76
2022-12-04T00:51:07.737Z,68.81
2022-12-04T00:53:34.866Z,68.86
2022-12-04T00:56:07.368Z,68.45
2022-12-04T00:58:34.263Z,68.83
2022-12-04T01:01:07.988Z,68.45
2022-12-04T01:03:35.309Z,68.78
2022-12-04T01:06:08.311Z,68.62
2022-12-04T01:08:35.453Z,68.53
2022-12-04T01:11:06.411Z,68.83
2022-12-04T01:13:33.322Z,68.73
2022-12-04T01:16:03.211Z,69.17
2022-12-04T01:18:30.090Z,69.37
2022-12-04T01:20:57.186Z,69.02
2022-12-04T01:23:24.086Z,68.81
2022-12-04T01:25:55.370Z,68.43
2022-12-04T01:28:24.697Z,68.29
2022-12-04T01:31:00.576Z,68.09
2022-12-04T01:33:28.602Z,68.33
2022-12-04T01:35:57.134Z,68.24
2022-12-04T01:38:24.901Z,68.00
2022-12-04T01:40:52.534Z,68.26
2022-12-04T01:43:20.858Z,68.13
2022-12-04T01:45:50.983Z,68.43
2022-12-04T01:48:24.107Z,68.63
2022-12-04T01:50:58.626Z,68.99
2022-12-04T01:53:25.918Z,68.83
2022-12-04T01:55:53.666Z,68.34
2022-12-04T01:58:27.750Z,68.43
2022-12-04T02:01:01.553Z,68.51
2022-12-04T02:03:30.840Z,68.73
2022-12-04T02:05:57.723Z,68.60
2022-12-04T02:08:25.821Z,68.60
2022-12-04T02:11:21.891Z,70.19
2022-12-04T02:14:05.995Z,69.43
2022-12-04T02:16:38.718Z,69.88
2022-12-04T02:19:20.785Z,69.84
2022-12-04T02:21:52.208Z,68.90
2022-12-04T02:24:25.023Z,69.43
2022-12-04T02:27:32.396Z,69.08
2022-12-04T02:30:05.880Z,68.89
2022-12-04T02:32:35.243Z,69.16
2022-12-04T02:35:27.816Z,69.19
2022-12-04T02:38:03.354Z,68.99
2022-12-04T02:40:42.964Z,69.70
2022-12-04T02:43:21.346Z,69.57
2022-12-04T02:46:05.199Z,70.07
2022-12-04T02:48:36.051Z,70.33
2022-12-04T02:51:06.738Z,70.01
2022-12-04T02:53:41.521Z,69.32
2022-12-04T02:56:12.685Z,69.56
2022-12-04T02:58:45.725Z,69.39
2022-12-04T03:01:20.627Z,69.77
2022-12-04T03:04:04.516Z,70.17
2022-12-04T03:06:36.627Z,69.51
2022-12-04T03:09:11.838Z,68.92
2022-12-04T03:11:43.971Z,68.15
2022-12-04T03:14:18.127Z,68.24
2022-12-04T03:16:48.277Z,68.32
2022-12-04T03:19:21.422Z,68.09
2022-12-04T03:21:52.514Z,67.93
2022-12-04T03:24:24.585Z,67.78
2022-12-04T03:27:04.702Z,67.62
2022-12-04T03:30:03.291Z,67.91
2022-12-04T03:32:42.133Z,68.04
2022-12-04T03:35:17.522Z,67.76
2022-12-04T03:38:00.360Z,67.90
2022-12-04T03:41:02.274Z,68.50
2022-12-04T03:43:34.834Z,68.84
2022-12-04T03:46:50.098Z,68.87
2022-12-04T03:49:21.405Z,68.32
2022-12-04T03:51:55.892Z,68.28
2022-12-04T03:54:33.580Z,68.76
2022-12-04T03:57:08.792Z,68.65
2022-12-04T03:59:42.891Z,68.75
2022-12-04T04:02:16.242Z,69.36
2022-12-04T04:04:48.196Z,69.08
2022-12-04T04:07:22.759Z,69.44
2022-12-04T04:09:54.159Z,68.93
2022-12-04T04:12:28.680Z,69.47
2022-12-04T04:15:21.003Z,68.72
2022-12-04T04:18:07.927Z,69.33
2022-12-04T04:21:04.913Z,69.91
2022-12-04T04:23:55.792Z,69.38
2022-12-04T04:26:24.009Z,69.41
2022-12-04T04:28:50.644Z,69.56
2022-12-04T04:31:34.102Z,69.62
2022-12-04T04:34:03.824Z,69.98
2022-12-04T04:37:03.622Z,69.86
2022-12-04T04:39:37.671Z,69.17
2022-12-04T04:42:18.015Z,69.01
2022-12-04T04:44:51.449Z,68.75
2022-12-04T04:47:38.563Z,68.81
2022-12-04T04:50:10.561Z,69.42
2022-12-04T04:52:41.084Z,69.80
2022-12-04T04:55:08.747Z,69.17
2022-12-04T04:57:36.989Z,68.88
2022-12-04T05:00:07.409Z,68.67
2022-12-04T05:02:34.519Z,69.44
2022-12-04T05:05:02.688Z,69.05
2022-12-04T05:07:29.398Z,68.85
2022-12-04T05:09:56.285Z,69.15
2022-12-04T05:12:23.236Z,69.38
2022-12-04T05:14:50.216Z,68.96
2022-12-04T05:17:17.699Z,68.96
2022-12-04T05:19:54.199Z,69.07
2022-12-04T05:22:23.955Z,68.68
2022-12-04T05:24:50.805Z,68.57
2022-12-04T05:27:17.451Z,68.21
2022-12-04T05:29:44.107Z,68.35
2022-12-04T05:32:10.887Z,67.91
2022-12-04T05:34:37.674Z,67.99
2022-12-04T05:37:04.469Z,68.72
2022-12-04T05:39:31.171Z,68.58
2022-12-04T05:41:57.815Z,69.43
2022-12-04T05:44:24.703Z,69.21
2022-12-04T05:46:51.518Z,68.53
2022-12-04T05:49:18.231Z,68.88
2022-12-04T05:51:45.030Z,69.00
2022-12-04T05:54:11.720Z,69.92
2022-12-04T05:56:38.480Z,69.49
2022-12-04T05:59:05.172Z,70.08
2022-12-04T06:01:32.043Z,69.57
2022-12-04T06:03:59.252Z,69.80
2022-12-04T06:06:29.195Z,69.79
2022-12-04T06:08:57.989Z,69.87
2022-12-04T06:11:30.750Z,69.56
2022-12-04T06:13:58.641Z,69.51
2022-12-04T06:16:28.391Z,69.13
2022-12-04T06:18:58.942Z,69.40
2022-12-04T06:21:27.841Z,68.80
2022-12-04T06:23:54.920Z,69.50
2022-12-04T06:26:22.652Z,69.66
2022-12-04T06:28:49.437Z,69.22
2022-12-04T06:31:18.952Z,69.42
2022-12-04T06:33:46.190Z,69.52
2022-12-04T06:36:16.006Z,69.73
2022-12-04T06:38:43.764Z,70.49
2022-12-04T06:41:13.116Z,70.39
2022-12-04T06:43:40.696Z,70.32
2022-12-04T06:46:13.628Z,69.47
2022-12-04T06:48:41.215Z,69.84
2022-12-04T06:51:11.479Z,69.32
2022-12-04T06:53:38.957Z,69.91
2022-12-04T06:56:08.577Z,69.34
2022-12-04T06:58:35.356Z,68.90
2022-12-04T07:01:08.224Z,69.47
2022-12-04T07:03:35.527Z,70.16
2022-12-04T07:06:22.001Z,70.33
2022-12-04T07:08:51.941Z,69.75
2022-12-04T07:11:19.961Z,69.86
2022-12-04T07:13:47.252Z,69.63
2022-12-04T07:16:16.681Z,69.61
2022-12-04T07:18:44.006Z,69.58
2022-12-04T07:21:14.827Z,70.50
2022-12-04T07:23:41.594Z,70.66
2022-12-04T07:26:11.256Z,70.79
2022-12-04T07:28:38.312Z,70.85
2022-12-04T07:31:06.485Z,71.17
2022-12-04T07:33:33.733Z,71.10
2022-12-04T07:36:02.377Z,70.64
2022-12-04T07:38:30.570Z,70.77
2022-12-04T07:40:58.518Z,70.57
2022-12-04T07:43:25.984Z,70.59
2022-12-04T07:45:52.925Z,69.71
2022-12-04T07:48:19.639Z,69.61
2022-12-04T07:50:46.358Z,69.98
2022-12-04T07:53:13.228Z,69.88
2022-12-04T07:55:40.042Z,69.52
2022-12-04T07:58:06.850Z,70.62
2022-12-04T08:00:33.793Z,70.01
2022-12-04T08:03:00.461Z,69.82
2022-12-04T08:05:28.142Z,70.16
2022-12-04T08:07:54.827Z,70.12
2022-12-04T08:10:21.547Z,69.01
2022-12-04T08:12:48.190Z,70.06
2022-12-04T08:15:15.069Z,69.18
2022-12-04T08:17:41.709Z,69.25
2022-12-04T08:20:08.829Z,69.85
2022-12-04T08:22:35.478Z,70.12
2022-12-04T08:25:04.669Z,69.42
2022-12-04T08:27:31.329Z,69.61
2022-12-04T08:29:58.350Z,69.36
2022-12-04T08:32:25.120Z,69.43
2022-12-04T08:34:55.661Z,69.03
2022-12-04T08:37:22.879Z,69.75
2022-12-04T08:39:49.679Z,69.63
2022-12-04T08:42:16.348Z,69.82
2022-12-04T08:44:43.022Z,69.92
2022-12-04T08:47:09.731Z,70.43
2022-12-04T08:49:36.453Z,69.46
2022-12-04T08:52:03.208Z,69.46
2022-12-04T08:54:35.812Z,69.78
2022-12-04T08:57:04.091Z,69.48
2022-12-04T08:59:30.867Z,69.96
2022-12-04T09:01:57.625Z,70.06
2022-12-04T09:04:24.362Z,69.56
2022-12-04T09:06:51.030Z,69.57
2022-12-04T09:09:17.853Z,70.14
2022-12-04T09:11:45.923Z,69.37
2022-12-04T09:14:12.937Z,68.98
2022-12-04T09:16:39.691Z,69.07
2022-12-04T09:19:06.409Z,69.66
2022-12-04T09:21:33.120Z,68.71
2022-12-04T09:24:00.121Z,68.64
2022-12-04T09:26:32.401Z,68.36
2022-12-04T09:29:01.712Z,68.45
2022-12-04T09:31:28.597Z,68.79
2022-12-04T09:33:57.592Z,68.86
2022-12-04T09:36:24.454Z,68.67
2022-12-04T09:38:53.317Z,69.11
2022-12-04T09:41:19.972Z,68.85
2022-12-04T09:43:53.716Z,69.25
2022-12-04T09:46:28.784Z,69.29
2022-12-04T09:48:59.133Z,69.00
2022-12-04T09:51:26.343Z,69.29
2022-12-04T09:53:59.653Z,68.78
2022-12-04T09:56:30.515Z,68.99
2022-12-04T09:59:11.387Z,69.33
2022-12-04T10:01:53.928Z,69.02
2022-12-04T10:04:20.907Z,68.61
2022-12-04T10:07:09.245Z,68.91
2022-12-04T10:09:46.469Z,68.57
2022-12-04T10:12:31.436Z,68.26
2022-12-04T10:15:17.788Z,68.66
2022-12-04T10:18:05.913Z,69.10
2022-12-04T10:21:00.200Z,69.19
2022-12-04T10:24:16.947Z,68.80
2022-12-04T10:26:48.791Z,68.84
2022-12-04T10:29:20.510Z,68.68
2022-12-04T10:31:49.296Z,69.26
2022-12-04T10:34:26.443Z,68.74
2022-12-04T10:36:58.749Z,68.35
2022-12-04T10:39:33.228Z,68.83
2022-12-04T10:42:10.460Z,68.33
2022-12-04T10:44:37.336Z,68.82
2022-12-04T10:47:06.111Z,68.24
2022-12-04T10:49:35.584Z,68.16
2022-12-04T10:52:03.994Z,68.58
2022-12-04T10:54:45.194Z,67.99
2022-12-04T10:57:13.955Z,67.84
2022-12-04T10:59:56.761Z,67.69
2022-12-04T11:02:33.243Z,68.68
2022-12-04T11:05:03.622Z,69.33
2022-12-04T11:07:36.011Z,69.22
2022-12-04T11:10:20.545Z,69.57
2022-12-04T11:13:17.583Z,70.17
2022-12-04T11:15:49.951Z,69.81
2022-12-04T11:18:26.807Z,69.27
2022-12-04T11:21:07.497Z,70.17
2022-12-04T11:23:44.958Z,70.58
2022-12-04T11:26:13.019Z,70.43
2022-12-04T11:28:45.781Z,70.06
2022-12-04T11:31:20.064Z,70.12
2022-12-04T11:33:51.156Z,69.75
2022-12-04T11:36:28.586Z,69.55
2022-12-04T11:39:04.558Z,69.29
2022-12-04T11:41:33.018Z,69.47
2022-12-04T11:44:01.027Z,69.08
2022-12-04T11:46:30.981Z,68.87
2022-12-04T11:48:58.450Z,69.13
2022-12-04T11:51:53.488Z,69.02
2022-12-04T11:54:33.871Z,68.08
2022-12-04T11:57:24.144Z,68.97
2022-12-04T12:00:08.856Z,68.11
2022-12-04T12:03:03.140Z,68.28
2022-12-04T12:05:44.945Z,67.96
2022-12-04T12:08:46.309Z,68.13
2022-12-04T12:11:16.169Z,68.96
2022-12-04T12:14:00.974Z,68.70
2022-12-04T12:16:49.986Z,68.53
2022-12-04T12:19:50.685Z,68.85
2022-12-04T12:22:44.948Z,68.90
2022-12-04T12:25:20.740Z,68.46
2022-12-04T12:28:02.846Z,68.91
2022-12-04T12:30:42.210Z,68.84
2022-12-04T12:33:20.191Z,68.67
2022-12-04T12:36:06.553Z,68.80
2022-12-04T12:38:48.222Z,68.55
2022-12-04T12:41:25.632Z,68.41
2022-12-04T12:44:02.785Z,67.88
2022-12-04T12:46:39.750Z,68.32
2022-12-04T12:49:09.319Z,68.49
2022-12-04T12:51:57.247Z,69.42
2022-12-04T12:54:36.688Z,68.82
2022-12-04T12:57:11.501Z,69.77
2022-12-04T12:59:46.092Z,69.69
2022-12-04T13:02:26.197Z,69.19
2022-12-04T13:04:57.413Z,69.14
2022-12-04T13:07:32.356Z,68.85
2022-12-04T13:10:13.019Z,68.74
2022-12-04T13:13:02.263Z,68.03
2022-12-04T13:15:38.948Z,67.89
2022-12-04T13:18:08.598Z,67.95
2022-12-04T13:20:44.131Z,67.96
2022-12-04T13:23:57.873Z,68.19
2022-12-04T13:26:49.732Z,68.13
2022-12-04T13:29:28.079Z,68.29
2022-12-04T13:31:57.538Z,68.42
2022-12-04T13:34:36.492Z,68.74
2022-12-04T13:37:35.348Z,69.29
2022-12-04T13:40:14.674Z,69.19
2022-12-04T13:42:42.292Z,69.24
2022-12-04T13:45:27.323Z,69.47
2022-12-04T13:48:01.985Z,68.82
2022-12-04T13:50:31.699Z,68.39
2022-12-04T13:52:58.884Z,68.52
2022-12-04T13:55:29.663Z,67.71
2022-12-04T13:57:59.539Z,67.92
2022-12-04T14:00:35.026Z,67.54
2022-12-04T14:03:20.786Z,67.68
2022-12-04T14:05:48.445Z,67.75
2022-12-04T14:08:27.141Z,67.48
2022-12-04T14:10:59.899Z,67.53
2022-12-04T14:13:36.875Z,67.50
2022-12-04T14:16:17.422Z,67.66
2022-12-04T14:18:55.034Z,67.88
2022-12-04T14:21:22.458Z,67.64
2022-12-04T14:23:50.843Z,67.78
2022-12-04T14:27:03.680Z,67.97
2022-12-04T14:29:30.136Z,67.39
2022-12-04T14:32:00.853Z,67.35
2022-12-04T14:34:31.788Z,67.09
2022-12-04T14:36:59.620Z,67.46
2022-12-04T14:39:31.517Z,66.71
2022-12-04T14:42:30.875Z,67.29
2022-12-04T14:45:00.233Z,67.45
2022-12-04T14:47:27.249Z,67.58
2022-12-04T14:50:08.934Z,67.06
2022-12-04T14:52:43.709Z,66.47
2022-12-04T14:55:25.859Z,66.83
2022-12-04T14:57:58.731Z,66.81
2022-12-04T15:00:25.685Z,67.08
2022-12-04T15:02:56.252Z,66.92
2022-12-04T15:05:29.023Z,66.77
2022-12-04T15:08:05.549Z,66.37
2022-12-04T15:10:53.404Z,66.41
2022-12-04T15:13:27.586Z,66.75
2022-12-04T15:15:54.400Z,66.29
2022-12-04T15:18:21.458Z,66.08
2022-12-04T15:20:48.113Z,66.47
2022-12-04T15:23:17.702Z,66.50
2022-12-04T15:25:47.502Z,66.43
2022-12-04T15:28:24.991Z,66.02
2022-12-04T15:30:54.025Z,66.00
2022-12-04T15:33:29.986Z,66.88
2022-12-04T15:36:05.404Z,66.52
2022-12-04T15:38:32.573Z,66.62
2022-12-04T15:41:02.534Z,67.21
2022-12-04T15:43:40.019Z,66.81
2022-12-04T15:46:14.782Z,67.50
2022-12-04T15:48:46.330Z,67.26
2022-12-04T15:51:16.369Z,67.38
2022-12-04T15:53:46.170Z,67.76
2022-12-04T15:56:21.892Z,67.87
2022-12-04T15:58:59.398Z,68.09
2022-12-04T16:01:26.935Z,68.90
2022-12-04T16:03:55.997Z,68.97
2022-12-04T16:06:24.136Z,68.97
2022-12-04T16:09:22.063Z,69.59
2022-12-04T16:12:02.344Z,69.75
2022-12-04T16:14:29.546Z,69.72
2022-12-04T16:17:04.332Z,69.92
2022-12-04T16:19:35.398Z,69.67
2022-12-04T16:22:04.705Z,70.20
2022-12-04T16:24:31.340Z,70.11
2022-12-04T16:27:00.287Z,70.34
2022-12-04T16:29:27.563Z,70.51
2022-12-04T16:31:57.192Z,70.65
2022-12-04T16:34:29.348Z,71.00
2022-12-04T16:36:56.197Z,70.52
2022-12-04T16:39:23.075Z,70.71
2022-12-04T16:41:49.728Z,70.50
2022-12-04T16:44:16.984Z,70.53
2022-12-04T16:46:44.521Z,70.36
2022-12-04T16:49:12.562Z,70.31
2022-12-04T16:51:44.845Z,69.52
2022-12-04T16:54:13.640Z,70.14
2022-12-04T16:56:40.494Z,69.97
2022-12-04T16:59:11.901Z,70.17
2022-12-04T17:01:45.636Z,69.94
2022-12-04T17:04:12.608Z,69.68
2022-12-04T17:06:39.415Z,69.93
2022-12-04T17:09:06.580Z,70.33
2022-12-04T17:11:33.329Z,70.28
2022-12-04T17:14:00.163Z,69.99
2022-12-04T17:16:29.384Z,69.74
2022-12-04T17:18:56.083Z,70.41
2022-12-04T17:21:22.760Z,70.60
2022-12-04T17:23:49.602Z,70.38
2022-12-04T17:26:16.352Z,70.55
2022-12-04T17:28:43.148Z,70.32
2022-12-04T17:31:18.953Z,70.82
2022-12-04T17:33:46.281Z,69.93
2022-12-04T17:36:16.057Z,70.50
2022-12-04T17:38:43.342Z,70.80
2022-12-04T17:41:14.919Z,70.68
2022-12-04T17:43:43.004Z,70.40
2022-12-04T17:46:12.278Z,70.95
2022-12-04T17:48:39.411Z,70.89
2022-12-04T17:51:12.383Z,70.87
2022-12-04T17:53:39.651Z,70.91
2022-12-04T17:56:09.237Z,70.41
2022-12-04T17:58:36.844Z,70.22
2022-12-04T18:01:15.452Z,70.49
2022-12-04T18:03:43.760Z,70.39
2022-12-04T18:06:19.939Z,70.44
2022-12-04T18:08:50.299Z,70.67
2022-12-04T18:11:22.789Z,70.44
2022-12-04T18:13:54.419Z,70.47
2022-12-04T18:16:21.329Z,69.62
2022-12-04T18:18:48.131Z,69.82
2022-12-04T18:21:15.264Z,70.10
2022-12-04T18:23:45.983Z,69.82
2022-12-04T18:26:27.092Z,69.91
2022-12-04T18:28:57.247Z,69.75
2022-12-04T18:31:24.071Z,70.09
2022-12-04T18:33:50.973Z,69.14
2022-12-04T18:36:20.774Z,68.77
2022-12-04T18:38:47.970Z,69.35
2022-12-04T18:41:14.969Z,69.08
